createdAt,value
2019-01-05T00:01:50.409Z,4.90
2019-01-05T00:04:46.083Z,4.89
2019-01-05T00:07:54.537Z,4.92
2019-01-05T00:10:55.949Z,4.85
2019-01-05T00:14:04.452Z,4.82
2019-01-05T00:17:05.642Z,4.90
2019-01-05T00:20:14.186Z,4.90
2019-01-05T00:23:21.581Z,4.91
2019-01-05T00:26:11.015Z,4.93
2019-01-05T00:32:45.548Z,4.93
2019-01-05T00:38:46.638Z,4.95
2019-01-05T00:45:04.453Z,4.95
2019-01-05T00:48:33.326Z,4.97
2019-01-05T00:52:02.277Z,5.01
2019-01-05T00:55:00.219Z,5.01
2019-01-05T00:58:01.019Z,5.03
2019-01-05T01:01:09.603Z,5.11
2019-01-05T01:04:10.906Z,5.11
2019-01-05T01:07:00.220Z,5.12
2019-01-05T01:09:58.466Z,5.14
2019-01-05T01:12:50.751Z,5.16
2019-01-05T01:15:56.735Z,5.20
2019-01-05T01:18:44.427Z,5.17
2019-01-05T01:21:25.363Z,5.17
2019-01-05T01:24:09.793Z,5.18
2019-01-05T01:26:49.344Z,5.18
2019-01-05T01:29:29.682Z,5.23
2019-01-05T01:32:22.119Z,5.23
2019-01-05T01:35:10.196Z,5.24
2019-01-05T01:38:37.377Z,5.28
2019-01-05T01:41:39.073Z,5.28
2019-01-05T01:44:37.829Z,5.22
2019-01-05T01:47:35.534Z,5.23
2019-01-05T01:50:28.185Z,5.26
2019-01-05T01:53:23.862Z,5.27
2019-01-05T01:56:16.989Z,5.29
2019-01-05T01:59:25.491Z,5.27
2019-01-05T02:02:26.811Z,5.25
2019-01-05T02:05:14.822Z,5.29
2019-01-05T02:08:13.080Z,5.33
2019-01-05T02:11:12.689Z,5.32
2019-01-05T02:14:10.387Z,5.35
2019-01-05T02:17:13.193Z,5.36
2019-01-05T02:20:36.643Z,5.39
2019-01-05T02:24:13.766Z,5.38
2019-01-05T02:28:14.078Z,5.40
2019-01-05T02:32:11.262Z,5.41
2019-01-05T02:35:59.888Z,5.46
2019-01-05T02:39:34.074Z,5.52
2019-01-05T02:43:10.389Z,5.57
2019-01-05T02:46:44.950Z,5.54
2019-01-05T02:50:52.043Z,5.52
2019-01-05T02:54:47.115Z,5.55
2019-01-05T02:58:29.500Z,5.57
2019-01-05T03:02:14.014Z,5.59
2019-01-05T03:05:58.387Z,5.60
2019-01-05T03:09:49.352Z,5.65
2019-01-05T03:13:36.280Z,5.66
2019-01-05T03:17:35.450Z,5.66
2019-01-05T03:21:14.245Z,5.67
2019-01-05T03:25:03.245Z,5.73
2019-01-05T03:28:46.973Z,5.75
2019-01-05T03:32:43.318Z,5.78
2019-01-05T03:36:41.123Z,5.76
2019-01-05T03:40:32.302Z,5.80
2019-01-05T03:44:11.345Z,5.79
2019-01-05T03:48:07.539Z,5.78
2019-01-05T03:51:38.120Z,5.83
2019-01-05T03:55:56.429Z,5.84
2019-01-05T03:59:40.721Z,5.91
2019-01-05T04:03:30.710Z,5.90
2019-01-05T04:07:07.718Z,5.95
2019-01-05T04:10:50.929Z,6.00
2019-01-05T04:14:31.143Z,6.02
2019-01-05T04:18:17.993Z,6.04
2019-01-05T04:21:40.130Z,6.06
2019-01-05T04:28:42.878Z,6.12
2019-01-05T04:32:29.729Z,6.15
2019-01-05T04:35:51.065Z,6.15
2019-01-05T04:39:37.650Z,6.19
2019-01-05T04:43:00.436Z,6.23
2019-01-05T04:46:46.973Z,6.22
2019-01-05T04:50:09.539Z,6.25
2019-01-05T04:53:11.757Z,6.25
2019-01-05T04:56:56.081Z,6.27
2019-01-05T05:00:17.506Z,6.30
2019-01-05T05:04:10.125Z,6.29
2019-01-05T05:07:45.957Z,6.27
2019-01-05T05:11:10.518Z,6.30
2019-01-05T05:14:46.248Z,6.31
2019-01-05T05:18:38.672Z,6.36
2019-01-05T05:22:31.273Z,6.37
2019-01-05T05:26:13.919Z,6.37
2019-01-05T05:30:15.697Z,6.36
2019-01-05T05:34:06.740Z,6.37
2019-01-05T05:37:48.865Z,6.41
2019-01-05T05:45:26.296Z,6.42
2019-01-05T05:48:34.333Z,6.48
2019-01-05T05:55:57.921Z,6.52
2019-01-05T05:59:50.100Z,6.55
2019-01-05T06:03:58.627Z,6.56
2019-01-05T06:08:14.372Z,6.59
2019-01-05T06:11:59.903Z,6.61
2019-01-05T06:15:57.059Z,6.64
2019-01-05T06:19:51.155Z,6.70
2019-01-05T06:23:23.601Z,6.72
2019-01-05T06:27:15.714Z,6.78
2019-01-05T06:30:46.908Z,6.80
2019-01-05T06:34:08.449Z,6.84
2019-01-05T06:38:02.332Z,6.88
2019-01-05T06:41:25.459Z,6.90
2019-01-05T06:45:05.389Z,6.97
2019-01-05T06:48:26.360Z,6.95
2019-01-05T06:55:20.755Z,6.98
2019-01-05T06:58:59.885Z,7.00
2019-01-05T07:02:48.170Z,7.01
2019-01-05T07:06:34.769Z,7.03
2019-01-05T07:10:08.350Z,7.05
2019-01-05T07:13:39.243Z,7.05
2019-01-05T07:20:47.824Z,7.09
2019-01-05T07:24:34.422Z,7.10
2019-01-05T07:27:55.987Z,7.07
2019-01-05T07:31:43.342Z,7.05
2019-01-05T07:34:53.091Z,7.07
2019-01-05T07:38:39.706Z,7.08
2019-01-05T07:42:00.842Z,7.10
2019-01-05T07:45:47.403Z,7.09
2019-01-05T07:49:07.372Z,7.07
2019-01-05T07:52:54.101Z,7.09
2019-01-05T07:56:07.648Z,7.10
2019-01-05T08:03:11.646Z,7.07
2019-01-05T08:10:37.885Z,7.10
2019-01-05T08:14:00.702Z,7.18
2019-01-05T08:17:25.203Z,7.17
2019-01-05T08:21:08.667Z,7.18
2019-01-05T08:27:59.375Z,7.15
2019-01-05T08:31:19.904Z,7.11
2019-01-05T08:35:06.479Z,7.16
2019-01-05T08:38:26.585Z,7.30
2019-01-05T08:42:13.196Z,7.20
2019-01-05T08:45:34.576Z,7.22
2019-01-05T08:48:54.458Z,7.18
2019-01-05T08:52:29.927Z,7.28
2019-01-05T08:56:24.747Z,7.30
2019-01-05T09:00:23.367Z,7.27
2019-01-05T09:03:58.411Z,7.21
2019-01-05T09:07:29.712Z,7.17
2019-01-05T09:11:17.611Z,7.18
2019-01-05T09:15:03.402Z,7.15
2019-01-05T09:18:45.252Z,7.11
2019-01-05T09:22:43.475Z,7.10
2019-01-05T09:26:25.868Z,7.11
2019-01-05T09:29:57.381Z,7.12
2019-01-05T09:33:41.011Z,7.10
2019-01-05T09:37:43.681Z,7.10
2019-01-05T09:41:37.698Z,7.09
2019-01-05T09:45:33.004Z,7.12
2019-01-05T09:49:23.019Z,7.09
2019-01-05T09:53:09.203Z,7.10
2019-01-05T09:56:48.370Z,7.13
2019-01-05T10:00:46.687Z,7.13
2019-01-05T10:04:54.714Z,7.12
2019-01-05T10:08:52.401Z,7.16
2019-01-05T10:12:42.185Z,7.18
2019-01-05T10:16:53.186Z,7.21
2019-01-05T10:21:02.205Z,7.21
2019-01-05T10:24:41.570Z,7.20
2019-01-05T10:28:20.789Z,7.23
2019-01-05T10:32:11.713Z,7.23
2019-01-05T10:35:37.743Z,7.21
2019-01-05T10:39:21.011Z,7.17
2019-01-05T10:43:28.737Z,7.24
2019-01-05T10:47:16.353Z,7.28
2019-01-05T10:51:04.351Z,7.30
2019-01-05T10:54:52.688Z,7.29
2019-01-05T10:58:49.533Z,7.27
2019-01-05T11:03:05.142Z,7.30
2019-01-05T11:06:53.863Z,7.29
2019-01-05T11:10:25.211Z,7.33
2019-01-05T11:14:20.015Z,7.34
2019-01-05T11:18:10.983Z,7.39
2019-01-05T11:22:01.278Z,7.37
2019-01-05T11:25:42.346Z,7.36
2019-01-05T11:29:36.491Z,7.40
2019-01-05T11:33:12.559Z,7.39
2019-01-05T11:37:14.942Z,7.40
2019-01-05T11:41:02.764Z,7.39
2019-01-05T11:44:36.189Z,7.39
2019-01-05T11:48:32.874Z,7.42
2019-01-05T11:52:29.872Z,7.47
2019-01-05T11:56:30.000Z,7.56
2019-01-05T12:00:38.851Z,7.57
2019-01-05T12:04:32.585Z,7.58
2019-01-05T12:08:32.266Z,7.61
2019-01-05T12:12:17.116Z,7.61
2019-01-05T12:15:55.057Z,7.57
2019-01-05T12:19:53.679Z,7.62
2019-01-05T12:23:39.220Z,7.62
2019-01-05T12:27:25.903Z,7.65
2019-01-05T12:31:05.305Z,7.62
2019-01-05T12:35:09.088Z,7.59
2019-01-05T12:39:01.429Z,7.58
2019-01-05T12:43:07.675Z,7.59
2019-01-05T12:46:57.553Z,7.61
2019-01-05T12:51:03.773Z,7.54
2019-01-05T12:55:11.326Z,7.53
2019-01-05T12:59:17.797Z,7.53
2019-01-05T13:03:04.883Z,7.54
2019-01-05T13:07:06.128Z,7.57
2019-01-05T13:11:04.823Z,7.56
2019-01-05T13:15:07.664Z,7.61
2019-01-05T13:19:28.001Z,7.64
2019-01-05T13:23:39.523Z,7.58
2019-01-05T13:27:27.907Z,7.51
2019-01-05T13:31:17.009Z,7.51
2019-01-05T13:35:11.256Z,7.52
2019-01-05T13:39:37.945Z,7.49
2019-01-05T13:43:30.366Z,7.49
2019-01-05T13:47:27.893Z,7.50
2019-01-05T13:51:29.237Z,7.52
2019-01-05T13:54:38.625Z,7.49
2019-01-05T13:57:29.942Z,7.55
2019-01-05T14:00:15.671Z,7.56
2019-01-05T14:03:21.378Z,7.54
2019-01-05T14:06:14.538Z,7.52
2019-01-05T14:09:02.051Z,7.50
2019-01-05T14:12:00.247Z,7.46
2019-01-05T14:14:58.795Z,7.42
2019-01-05T14:17:54.367Z,7.44
2019-01-05T14:20:42.022Z,7.40
2019-01-05T14:23:36.959Z,7.41
2019-01-05T14:26:33.323Z,7.35
2019-01-05T14:29:21.362Z,7.31
2019-01-05T14:32:19.765Z,7.27
2019-01-05T14:35:11.198Z,7.25
2019-01-05T14:38:12.232Z,7.22
2019-01-05T14:41:01.444Z,7.22
2019-01-05T14:44:10.009Z,7.20
2019-01-05T14:46:58.221Z,7.17
2019-01-05T14:49:47.448Z,7.18
2019-01-05T14:52:55.997Z,7.17
2019-01-05T14:55:57.126Z,7.16
2019-01-05T14:59:05.559Z,7.20
2019-01-05T15:02:06.867Z,7.17
2019-01-05T15:05:09.345Z,7.16
2019-01-05T15:07:58.806Z,7.18
2019-01-05T15:11:05.647Z,7.11
2019-01-05T15:14:14.093Z,7.11
2019-01-05T15:17:18.109Z,7.10
2019-01-05T15:20:22.268Z,7.05
2019-01-05T15:23:02.893Z,7.04
2019-01-05T15:25:57.699Z,7.06
2019-01-05T15:28:58.581Z,7.01
2019-01-05T15:31:45.560Z,6.98
2019-01-05T15:34:32.810Z,7.00
2019-01-05T15:37:34.362Z,6.98
2019-01-05T15:40:27.590Z,6.97
2019-01-05T15:43:32.082Z,6.95
2019-01-05T15:46:19.523Z,6.91
2019-01-05T15:49:06.442Z,6.93
2019-01-05T15:52:10.568Z,6.91
2019-01-05T15:55:08.658Z,6.90
2019-01-05T15:58:07.444Z,6.86
2019-01-05T16:01:08.836Z,6.85
2019-01-05T16:03:58.394Z,6.88
2019-01-05T16:07:02.645Z,6.86
2019-01-05T16:09:54.727Z,6.85
2019-01-05T16:12:42.460Z,6.83
2019-01-05T16:15:30.078Z,6.83
2019-01-05T16:18:17.918Z,6.84
2019-01-05T16:21:19.837Z,6.83
2019-01-05T16:24:04.763Z,6.80
2019-01-05T16:26:59.201Z,6.81
2019-01-05T16:29:56.984Z,6.77
2019-01-05T16:32:58.024Z,6.82
2019-01-05T16:35:42.953Z,6.83
2019-01-05T16:38:27.777Z,6.81
2019-01-05T16:41:17.310Z,6.78
2019-01-05T16:44:04.957Z,6.78
2019-01-05T16:47:01.570Z,6.76
2019-01-05T16:50:06.155Z,6.79
2019-01-05T16:52:54.051Z,6.74
2019-01-05T16:55:51.990Z,6.74
2019-01-05T16:58:39.572Z,6.70
2019-01-05T17:01:36.532Z,6.71
2019-01-05T17:04:31.655Z,6.75
2019-01-05T17:07:21.449Z,6.72
2019-01-05T17:10:09.207Z,6.72
2019-01-05T17:13:04.531Z,6.67
2019-01-05T17:15:52.085Z,6.67
2019-01-05T17:18:44.167Z,6.64
2019-01-05T17:21:33.564Z,6.66
2019-01-05T17:24:21.011Z,6.67
2019-01-05T17:27:08.796Z,6.65
2019-01-05T17:30:15.642Z,6.63
2019-01-05T17:33:03.316Z,6.65
2019-01-05T17:35:52.497Z,6.64
2019-01-05T17:38:47.552Z,6.64
2019-01-05T17:41:45.503Z,6.68
2019-01-05T17:44:40.747Z,6.66
2019-01-05T17:47:44.815Z,6.65
2019-01-05T17:50:39.716Z,6.61
2019-01-05T17:53:27.015Z,6.64
2019-01-05T17:56:12.892Z,6.63
2019-01-05T17:59:00.626Z,6.64
2019-01-05T18:01:58.963Z,6.62
2019-01-05T18:04:58.205Z,6.59
2019-01-05T18:07:45.857Z,6.60
2019-01-05T18:10:36.303Z,6.61
2019-01-05T18:13:23.949Z,6.59
2019-01-05T18:16:15.960Z,6.59
2019-01-05T18:19:16.583Z,6.61
2019-01-05T18:22:00.267Z,6.62
2019-01-05T18:24:47.626Z,6.62
2019-01-05T18:27:34.998Z,6.61
2019-01-05T18:30:42.820Z,6.59
2019-01-05T18:33:37.930Z,6.62
2019-01-05T18:36:36.142Z,6.57
2019-01-05T18:39:35.538Z,6.59
2019-01-05T18:42:30.989Z,6.60
2019-01-05T18:45:18.438Z,6.59
2019-01-05T18:48:22.499Z,6.56
2019-01-05T18:51:10.043Z,6.57
2019-01-05T18:53:57.716Z,6.55
2019-01-05T18:57:03.459Z,6.62
2019-01-05T18:59:55.515Z,6.56
2019-01-05T19:03:03.360Z,6.59
2019-01-05T19:05:53.602Z,6.55
2019-01-05T19:08:41.333Z,6.57
2019-01-05T19:11:36.556Z,6.55
2019-01-05T19:14:24.410Z,6.56
2019-01-05T19:17:28.602Z,6.57
2019-01-05T19:20:20.416Z,6.57
2019-01-05T19:23:00.656Z,6.56
2019-01-05T19:25:55.524Z,6.55
2019-01-05T19:28:43.085Z,6.52
2019-01-05T19:31:30.655Z,6.55
2019-01-05T19:34:39.125Z,6.55
2019-01-05T19:37:47.742Z,6.59
2019-01-05T19:40:43.489Z,6.56
2019-01-05T19:43:51.757Z,6.53
2019-01-05T19:46:55.847Z,6.51
2019-01-05T19:49:55.266Z,6.58
2019-01-05T19:52:56.649Z,6.61
2019-01-05T19:56:05.194Z,6.56
2019-01-05T19:59:12.064Z,6.56
2019-01-05T20:02:20.316Z,6.56
2019-01-05T20:05:23.534Z,6.57
2019-01-05T20:08:13.205Z,6.56
2019-01-05T20:11:15.488Z,6.58
2019-01-05T20:14:19.009Z,6.57
2019-01-05T20:17:28.256Z,6.60
2019-01-05T20:20:36.668Z,6.52
2019-01-05T20:23:40.624Z,6.55
2019-01-05T20:26:43.367Z,6.58
2019-01-05T20:29:33.020Z,6.55
2019-01-05T20:32:34.269Z,6.55
2019-01-05T20:35:42.822Z,6.54
2019-01-05T20:38:45.147Z,6.56
2019-01-05T20:41:37.955Z,6.56
2019-01-05T20:44:25.561Z,6.55
2019-01-05T20:47:24.501Z,6.57
2019-01-05T20:50:12.572Z,6.54
2019-01-05T20:53:08.224Z,6.57
2019-01-05T20:55:55.927Z,6.57
2019-01-05T20:58:43.795Z,6.55
2019-01-05T21:01:45.266Z,6.56
2019-01-05T21:04:37.456Z,6.60
2019-01-05T21:07:39.372Z,6.58
2019-01-05T21:10:28.187Z,6.56
2019-01-05T21:13:23.696Z,6.55
2019-01-05T21:16:11.714Z,6.51
2019-01-05T21:19:19.417Z,6.54
2019-01-05T21:22:07.319Z,6.55
2019-01-05T21:24:56.657Z,6.53
2019-01-05T21:28:04.155Z,6.53
2019-01-05T21:31:05.297Z,6.54
2019-01-05T21:33:53.213Z,6.54
2019-01-05T21:36:48.848Z,6.51
2019-01-05T21:39:46.952Z,6.46
2019-01-05T21:42:48.811Z,6.51
2019-01-05T21:45:40.830Z,6.48
2019-01-05T21:48:29.015Z,6.51
2019-01-05T21:51:21.638Z,6.47
2019-01-05T21:54:09.434Z,6.47
2019-01-05T21:57:04.799Z,6.45
2019-01-05T21:59:53.048Z,6.44
2019-01-05T22:02:37.754Z,6.46
2019-01-05T22:05:22.428Z,6.48
2019-01-05T22:08:14.772Z,6.47
2019-01-05T22:11:06.122Z,6.47
2019-01-05T22:13:55.768Z,6.55
2019-01-05T22:16:43.621Z,6.51
2019-01-05T22:19:41.832Z,6.49
2019-01-05T22:22:29.506Z,6.47
2019-01-05T22:25:25.005Z,6.49
2019-01-05T22:28:29.431Z,6.46
2019-01-05T22:31:17.380Z,6.44
2019-01-05T22:34:02.857Z,6.41
2019-01-05T22:36:58.052Z,6.41
2019-01-05T22:39:53.220Z,6.38
2019-01-05T22:42:41.831Z,6.41
2019-01-05T22:45:45.575Z,6.40
2019-01-05T22:48:37.832Z,6.40
2019-01-05T22:51:36.099Z,6.44
2019-01-05T22:54:24.259Z,6.42
2019-01-05T22:57:13.955Z,6.38
2019-01-05T23:03:31.072Z,6.36
2019-01-05T23:06:40.095Z,6.34
2019-01-05T23:09:38.316Z,6.42
2019-01-05T23:12:47.106Z,6.34
2019-01-05T23:15:47.937Z,6.34
2019-01-05T23:18:56.340Z,6.37
2019-01-05T23:21:57.050Z,6.34
2019-01-05T23:25:05.535Z,6.39
2019-01-05T23:28:06.928Z,6.40
2019-01-05T23:31:10.799Z,6.39
2019-01-05T23:34:07.107Z,6.36
2019-01-05T23:36:56.642Z,6.38
2019-01-05T23:39:44.415Z,6.37
2019-01-05T23:42:36.623Z,6.37
2019-01-05T23:45:24.296Z,6.34
2019-01-05T23:48:12.162Z,6.34
2019-01-05T23:51:00.122Z,6.37
2019-01-05T23:54:07.220Z,6.40
2019-01-05T23:56:54.953Z,6.38
2019-01-05T23:59:53.883Z,6.37
